createdAt,value
2023-05-13T00:01:03.958Z,97725.13
2023-05-13T00:03:33.308Z,97726.41
2023-05-13T00:06:01.365Z,97724.09
2023-05-13T00:08:28.893Z,97716.53
2023-05-13T00:10:56.383Z,97725.38
2023-05-13T00:13:23.857Z,97719.19
2023-05-13T00:15:51.416Z,97714.25
2023-05-13T00:18:18.944Z,97711.97
2023-05-13T00:20:47.754Z,97718.31
2023-05-13T00:23:15.445Z,97718.09
2023-05-13T00:25:44.517Z,97716.28
2023-05-13T00:28:13.978Z,97719.97
2023-05-13T00:30:42.161Z,97723.22
2023-05-13T00:33:10.396Z,97719.94
2023-05-13T00:35:37.908Z,97717.84
2023-05-13T00:38:07.887Z,97722.84
2023-05-13T00:40:39.478Z,97727.34
2023-05-13T00:43:07.108Z,97724.44
2023-05-13T00:45:34.616Z,97721.72
2023-05-13T00:48:02.210Z,97726.66
2023-05-13T00:50:29.795Z,97723.94
2023-05-13T00:52:58.426Z,97719.09
2023-05-13T00:55:27.590Z,97725.28
2023-05-13T00:57:55.070Z,97718.97
2023-05-13T01:00:22.763Z,97719.16
2023-05-13T01:02:54.975Z,97718.97
2023-05-13T01:05:32.664Z,97720.81
2023-05-13T01:08:03.865Z,97727.69
2023-05-13T01:10:37.973Z,97725.38
2023-05-13T01:13:09.879Z,97726.59
2023-05-13T01:15:41.750Z,97726.75
2023-05-13T01:18:14.641Z,97735.06
2023-05-13T01:20:43.788Z,97726.22
2023-05-13T01:23:13.504Z,97723.59
2023-05-13T01:25:41.537Z,97728.31
2023-05-13T01:28:10.016Z,97728.88
2023-05-13T01:30:40.152Z,97730.53
2023-05-13T01:33:09.674Z,97733.03
2023-05-13T01:35:37.243Z,97726.56
2023-05-13T01:38:05.740Z,97736.88
2023-05-13T01:40:35.881Z,97732.78
2023-05-13T01:43:06.212Z,97733.75
2023-05-13T01:45:34.142Z,97729.47
2023-05-13T01:48:02.547Z,97733.94
2023-05-13T01:50:39.968Z,97737.97
2023-05-13T01:53:07.862Z,97734.69
2023-05-13T01:55:39.205Z,97733.22
2023-05-13T01:58:06.862Z,97736.28
2023-05-13T02:00:34.381Z,97735.97
2023-05-13T02:03:01.907Z,97735.56
2023-05-13T02:05:31.520Z,97730.59
2023-05-13T02:07:59.300Z,97730.78
2023-05-13T02:10:26.815Z,97730.13
2023-05-13T02:12:55.705Z,97730.44
2023-05-13T02:15:23.345Z,97732.16
2023-05-13T02:17:51.018Z,97727.63
2023-05-13T02:20:18.780Z,97725.31
2023-05-13T02:22:46.480Z,97731.66
2023-05-13T02:25:14.207Z,97736.50
2023-05-13T02:27:41.774Z,97728.59
2023-05-13T02:30:11.443Z,97725.94
2023-05-13T02:32:42.598Z,97726.25
2023-05-13T02:35:10.823Z,97723.94
2023-05-13T02:37:38.459Z,97726.25
2023-05-13T02:40:07.158Z,97731.28
2023-05-13T02:42:34.649Z,97725.91
2023-05-13T02:45:02.193Z,97733.75
2023-05-13T02:47:34.311Z,97724.00
2023-05-13T02:50:07.909Z,97721.97
2023-05-13T02:52:36.105Z,97722.59
2023-05-13T02:55:04.210Z,97722.63
2023-05-13T02:57:31.780Z,97721.00
2023-05-13T02:59:59.586Z,97714.66
2023-05-13T03:02:28.027Z,97714.56
2023-05-13T03:04:57.248Z,97718.63
2023-05-13T03:07:24.853Z,97721.44
2023-05-13T03:09:52.339Z,97725.47
2023-05-13T03:12:19.933Z,97716.78
2023-05-13T03:14:48.900Z,97712.66
2023-05-13T03:17:16.558Z,97713.25
2023-05-13T03:19:44.206Z,97712.78
2023-05-13T03:22:13.093Z,97710.16
2023-05-13T03:24:41.618Z,97715.13
2023-05-13T03:27:09.960Z,97706.50
2023-05-13T03:29:39.704Z,97726.06
2023-05-13T03:32:08.295Z,97717.25
2023-05-13T03:34:37.788Z,97710.84
2023-05-13T03:37:05.791Z,97715.59
2023-05-13T03:39:34.688Z,97726.00
2023-05-13T03:42:02.793Z,97719.00
2023-05-13T03:44:30.350Z,97722.47
2023-05-13T03:46:57.846Z,97715.16
2023-05-13T03:49:26.126Z,97722.53
2023-05-13T03:51:53.595Z,97723.81
2023-05-13T03:54:21.144Z,97730.75
2023-05-13T03:56:50.023Z,97726.81
2023-05-13T03:59:17.537Z,97726.25
2023-05-13T04:01:45.132Z,97725.06
2023-05-13T04:04:12.682Z,97734.19
2023-05-13T04:06:40.259Z,97738.63
2023-05-13T04:09:07.774Z,97737.44
2023-05-13T04:11:36.228Z,97730.53
2023-05-13T04:14:05.080Z,97730.47
2023-05-13T04:16:36.051Z,97739.75
2023-05-13T04:19:06.572Z,97739.03
2023-05-13T04:21:34.092Z,97750.03
2023-05-13T04:24:01.607Z,97740.97
2023-05-13T04:26:29.175Z,97736.84
2023-05-13T04:28:56.709Z,97742.16
2023-05-13T04:31:25.903Z,97739.94
2023-05-13T04:33:53.411Z,97742.41
2023-05-13T04:36:20.985Z,97757.03
2023-05-13T04:38:48.513Z,97751.34
2023-05-13T04:41:17.419Z,97752.91
2023-05-13T04:43:46.742Z,97765.66
2023-05-13T04:46:14.394Z,97763.84
2023-05-13T04:48:48.026Z,97762.00
2023-05-13T04:51:16.501Z,97761.63
2023-05-13T04:53:44.439Z,97760.25
2023-05-13T04:56:12.616Z,97764.38
2023-05-13T04:58:40.143Z,97770.47
2023-05-13T05:01:08.786Z,97766.41
2023-05-13T05:03:36.352Z,97771.56
2023-05-13T05:06:06.692Z,97768.72
2023-05-13T05:08:34.202Z,97775.19
2023-05-13T05:11:01.890Z,97776.13
2023-05-13T05:13:31.059Z,97776.78
2023-05-13T05:15:58.671Z,97768.13
2023-05-13T05:18:26.310Z,97776.56
2023-05-13T05:20:53.908Z,97769.88
2023-05-13T05:23:23.969Z,97773.19
2023-05-13T05:26:03.967Z,97771.53
2023-05-13T05:28:34.398Z,97768.44
2023-05-13T05:31:02.031Z,97771.16
2023-05-13T05:33:32.084Z,97768.56
2023-05-13T05:36:00.368Z,97777.66
2023-05-13T05:38:29.335Z,97774.19
2023-05-13T05:40:58.936Z,97776.38
2023-05-13T05:43:26.863Z,97771.34
2023-05-13T05:45:54.443Z,97774.31
2023-05-13T05:48:23.125Z,97774.53
2023-05-13T05:50:51.056Z,97775.56
2023-05-13T05:53:25.972Z,97768.38
2023-05-13T05:55:54.812Z,97770.66
2023-05-13T05:58:22.455Z,97771.06
2023-05-13T06:00:51.853Z,97768.00
2023-05-13T06:03:19.565Z,97761.31
2023-05-13T06:05:47.364Z,97763.00
2023-05-13T06:08:14.979Z,97766.16
2023-05-13T06:10:42.560Z,97768.28
2023-05-13T06:13:12.184Z,97768.19
2023-05-13T06:15:39.847Z,97764.56
2023-05-13T06:18:07.700Z,97769.81
2023-05-13T06:20:35.676Z,97764.13
2023-05-13T06:23:03.218Z,97764.75
2023-05-13T06:25:30.802Z,97770.56
2023-05-13T06:27:59.003Z,97770.75
2023-05-13T06:30:29.176Z,97771.41
2023-05-13T06:33:01.447Z,97769.59
2023-05-13T06:35:30.924Z,97765.53
2023-05-13T06:37:59.391Z,97762.66
2023-05-13T06:40:27.155Z,97758.81
2023-05-13T06:42:55.801Z,97759.66
2023-05-13T06:45:31.149Z,97762.75
2023-05-13T06:47:59.120Z,97764.44
2023-05-13T06:50:26.696Z,97760.09
2023-05-13T06:52:54.197Z,97766.84
2023-05-13T06:55:21.760Z,97761.63
2023-05-13T06:57:49.253Z,97756.59
2023-05-13T07:00:17.759Z,97763.78
2023-05-13T07:02:46.605Z,97763.13
2023-05-13T07:05:14.152Z,97760.59
2023-05-13T07:07:43.197Z,97747.56
2023-05-13T07:10:11.341Z,97752.41
2023-05-13T07:12:38.797Z,97757.88
2023-05-13T07:15:07.758Z,97751.56
2023-05-13T07:17:35.344Z,97752.50
2023-05-13T07:20:04.526Z,97757.19
2023-05-13T07:22:32.002Z,97756.19
2023-05-13T07:24:59.589Z,97745.69
2023-05-13T07:27:27.063Z,97748.41
2023-05-13T07:29:55.240Z,97748.31
2023-05-13T07:32:22.775Z,97747.38
2023-05-13T07:34:51.123Z,97739.38
2023-05-13T07:37:19.928Z,97745.38
2023-05-13T07:39:47.431Z,97742.50
2023-05-13T07:42:15.326Z,97732.19
2023-05-13T07:44:42.781Z,97739.53
2023-05-13T07:47:10.361Z,97738.22
2023-05-13T07:49:37.966Z,97740.44
2023-05-13T07:52:05.893Z,97744.31
2023-05-13T07:54:34.717Z,97740.59
2023-05-13T07:57:02.798Z,97741.75
2023-05-13T07:59:30.413Z,97735.69
2023-05-13T08:01:57.898Z,97725.00
2023-05-13T08:04:26.010Z,97732.41
2023-05-13T08:06:53.722Z,97730.41
2023-05-13T08:09:21.207Z,97730.31
2023-05-13T08:11:50.120Z,97720.78
2023-05-13T08:14:17.660Z,97718.84
2023-05-13T08:16:45.261Z,97724.16
2023-05-13T08:19:15.127Z,97730.22
2023-05-13T08:21:42.652Z,97726.41
2023-05-13T08:24:10.232Z,97723.84
2023-05-13T08:26:38.235Z,97727.72
2023-05-13T08:29:07.646Z,97725.34
2023-05-13T08:31:35.185Z,97719.84
2023-05-13T08:34:02.858Z,97721.19
2023-05-13T08:36:30.459Z,97718.00
2023-05-13T08:38:58.018Z,97730.25
2023-05-13T08:41:25.638Z,97736.41
2023-05-13T08:43:53.239Z,97740.66
2023-05-13T08:46:25.714Z,97731.47
2023-05-13T08:48:54.936Z,97741.88
2023-05-13T08:51:22.596Z,97739.28
2023-05-13T08:53:50.807Z,97738.88
2023-05-13T08:56:18.290Z,97741.94
2023-05-13T08:58:45.863Z,97741.22
2023-05-13T09:01:13.517Z,97738.41
2023-05-13T09:03:51.283Z,97744.06
2023-05-13T09:06:18.791Z,97750.66
2023-05-13T09:08:46.377Z,97745.06
2023-05-13T09:11:14.046Z,97750.22
2023-05-13T09:13:42.674Z,97753.22
2023-05-13T09:16:10.392Z,97749.63
2023-05-13T09:18:38.738Z,97745.75
2023-05-13T09:21:26.734Z,97743.09
2023-05-13T09:23:57.838Z,97739.66
2023-05-13T09:26:29.075Z,97740.00
2023-05-13T09:29:18.294Z,97735.47
2023-05-13T09:31:46.825Z,97726.06
2023-05-13T09:34:14.371Z,97735.72
2023-05-13T09:36:43.246Z,97730.88
2023-05-13T09:39:12.510Z,97732.53
2023-05-13T09:41:39.998Z,97733.66
2023-05-13T09:44:09.126Z,97729.66
2023-05-13T09:46:36.668Z,97728.25
2023-05-13T09:49:05.694Z,97726.19
2023-05-13T09:51:33.182Z,97727.41
2023-05-13T09:54:06.925Z,97722.81
2023-05-13T09:56:36.129Z,97732.22
2023-05-13T09:59:04.574Z,97731.25
2023-05-13T10:01:32.121Z,97736.91
2023-05-13T10:03:59.861Z,97736.69
2023-05-13T10:06:29.246Z,97736.84
2023-05-13T10:08:59.573Z,97730.25
2023-05-13T10:11:28.785Z,97737.56
2023-05-13T10:14:00.045Z,97741.91
2023-05-13T10:16:29.141Z,97745.19
2023-05-13T10:18:58.291Z,97745.94
2023-05-13T10:21:26.415Z,97744.94
2023-05-13T10:23:54.217Z,97740.97
2023-05-13T10:26:22.117Z,97746.00
2023-05-13T10:28:51.646Z,97746.25
2023-05-13T10:31:19.159Z,97742.84
2023-05-13T10:33:46.800Z,97736.28
2023-05-13T10:36:27.516Z,97733.59
2023-05-13T10:39:07.504Z,97736.16
2023-05-13T10:42:20.548Z,97744.97
2023-05-13T10:44:54.606Z,97744.59
2023-05-13T10:47:22.217Z,97733.31
2023-05-13T10:49:52.018Z,97745.06
2023-05-13T10:52:19.956Z,97756.75
2023-05-13T10:55:02.346Z,97747.53
2023-05-13T10:57:30.990Z,97747.75
2023-05-13T11:00:16.447Z,97748.31
2023-05-13T11:02:44.402Z,97741.09
2023-05-13T11:05:20.316Z,97749.63
2023-05-13T11:07:56.379Z,97753.38
2023-05-13T11:10:27.458Z,97757.78
2023-05-13T11:13:24.494Z,97749.44
2023-05-13T11:15:54.826Z,97753.81
2023-05-13T11:18:30.940Z,97753.97
2023-05-13T11:21:05.207Z,97752.25
2023-05-13T11:23:34.564Z,97752.81
2023-05-13T11:26:14.104Z,97748.84
2023-05-13T11:28:59.192Z,97749.28
2023-05-13T11:31:29.899Z,97742.50
2023-05-13T11:34:07.824Z,97752.47
2023-05-13T11:36:35.987Z,97745.63
2023-05-13T11:39:08.219Z,97747.28
2023-05-13T11:41:36.454Z,97741.06
2023-05-13T11:44:05.977Z,97749.19
2023-05-13T11:46:34.912Z,97745.66
2023-05-13T11:49:02.823Z,97753.53
2023-05-13T11:51:31.956Z,97749.16
2023-05-13T11:54:03.819Z,97755.13
2023-05-13T11:56:31.767Z,97749.78
2023-05-13T11:59:15.395Z,97756.94
2023-05-13T12:01:44.806Z,97759.88
2023-05-13T12:04:12.634Z,97763.88
2023-05-13T12:06:45.733Z,97758.06
2023-05-13T12:09:13.417Z,97752.44
2023-05-13T12:11:41.566Z,97758.28
2023-05-13T12:14:09.285Z,97751.78
2023-05-13T12:16:37.037Z,97750.13
2023-05-13T12:19:08.966Z,97762.19
2023-05-13T12:21:37.407Z,97755.88
2023-05-13T12:24:18.102Z,97762.47
2023-05-13T12:26:45.629Z,97762.06
2023-05-13T12:29:13.140Z,97767.75
2023-05-13T12:31:42.565Z,97776.56
2023-05-13T12:34:11.633Z,97777.75
2023-05-13T12:36:40.059Z,97775.66
2023-05-13T12:39:09.839Z,97775.31
2023-05-13T12:41:38.863Z,97776.03
2023-05-13T12:44:09.710Z,97774.66
2023-05-13T12:46:38.060Z,97771.84
2023-05-13T12:49:06.444Z,97783.00
2023-05-13T12:51:35.414Z,97779.47
2023-05-13T12:54:02.928Z,97781.59
2023-05-13T12:56:30.445Z,97775.63
2023-05-13T12:58:58.784Z,97789.09
2023-05-13T13:01:26.309Z,97783.13
2023-05-13T13:03:54.077Z,97790.88
2023-05-13T13:06:21.886Z,97788.28
2023-05-13T13:08:50.776Z,97787.81
2023-05-13T13:11:19.332Z,97796.19
2023-05-13T13:13:47.211Z,97788.06
2023-05-13T13:16:14.828Z,97790.00
2023-05-13T13:18:42.764Z,97778.84
2023-05-13T13:21:11.053Z,97778.94
2023-05-13T13:23:38.585Z,97792.72
2023-05-13T13:26:07.450Z,97787.91
2023-05-13T13:28:35.089Z,97794.53
2023-05-13T13:31:02.552Z,97790.06
2023-05-13T13:33:30.025Z,97783.97
2023-05-13T13:35:57.520Z,97784.28
2023-05-13T13:38:25.019Z,97783.66
2023-05-13T13:40:52.499Z,97775.53
2023-05-13T13:43:21.367Z,97779.22
2023-05-13T13:45:48.908Z,97783.06
2023-05-13T13:48:16.449Z,97779.66
2023-05-13T13:50:45.408Z,97770.00
2023-05-13T13:53:14.890Z,97767.28
2023-05-13T13:55:42.362Z,97770.13
2023-05-13T13:58:10.079Z,97763.78
2023-05-13T14:00:38.872Z,97764.72
2023-05-13T14:03:06.455Z,97755.38
2023-05-13T14:05:34.041Z,97758.69
2023-05-13T14:08:01.677Z,97754.25
2023-05-13T14:10:29.146Z,97748.03
2023-05-13T14:12:56.659Z,97748.25
2023-05-13T14:15:28.527Z,97752.03
2023-05-13T14:17:57.452Z,97753.28
2023-05-13T14:20:25.572Z,97744.88
2023-05-13T14:22:53.057Z,97751.53
2023-05-13T14:25:20.631Z,97745.41
2023-05-13T14:27:48.160Z,97743.28
2023-05-13T14:30:15.803Z,97753.34
2023-05-13T14:32:44.946Z,97749.72
2023-05-13T14:35:14.454Z,97753.63
2023-05-13T14:37:42.196Z,97755.41
2023-05-13T14:40:10.571Z,97755.63
2023-05-13T14:42:38.106Z,97741.91
2023-05-13T14:45:06.485Z,97753.03
2023-05-13T14:47:35.243Z,97758.47
2023-05-13T14:50:02.853Z,97750.97
2023-05-13T14:52:31.778Z,97748.72
2023-05-13T14:54:59.226Z,97740.72
2023-05-13T14:57:26.838Z,97748.69
2023-05-13T14:59:54.330Z,97742.84
2023-05-13T15:02:21.935Z,97748.47
2023-05-13T15:04:49.585Z,97746.38
2023-05-13T15:07:17.103Z,97743.06
2023-05-13T15:09:45.969Z,97739.44
2023-05-13T15:12:13.613Z,97743.91
2023-05-13T15:14:41.059Z,97746.38
2023-05-13T15:17:11.710Z,97745.06
2023-05-13T15:19:39.407Z,97740.59
2023-05-13T15:22:06.890Z,97744.88
2023-05-13T15:24:34.477Z,97738.59
2023-05-13T15:27:03.705Z,97737.38
2023-05-13T15:29:31.242Z,97741.09
2023-05-13T15:31:59.329Z,97734.34
2023-05-13T15:34:26.829Z,97732.13
2023-05-13T15:36:54.336Z,97735.13
2023-05-13T15:39:22.009Z,97734.66
2023-05-13T15:41:49.532Z,97728.81
2023-05-13T15:44:18.400Z,97728.22
2023-05-13T15:46:48.752Z,97726.00
2023-05-13T15:49:17.653Z,97717.69
2023-05-13T15:51:45.175Z,97714.63
2023-05-13T15:54:12.695Z,97720.28
2023-05-13T15:56:40.286Z,97707.75
2023-05-13T15:59:07.849Z,97717.97
2023-05-13T16:01:37.568Z,97707.41
2023-05-13T16:04:05.298Z,97710.34
2023-05-13T16:06:32.863Z,97712.91
2023-05-13T16:09:01.885Z,97706.56
2023-05-13T16:11:29.865Z,97699.88
2023-05-13T16:13:57.424Z,97706.25
2023-05-13T16:16:25.095Z,97695.66
2023-05-13T16:18:54.029Z,97703.66
2023-05-13T16:21:21.912Z,97702.69
2023-05-13T16:23:50.966Z,97697.19
2023-05-13T16:26:18.637Z,97694.13
2023-05-13T16:28:46.162Z,97695.97
2023-05-13T16:31:13.685Z,97700.09
2023-05-13T16:33:41.256Z,97699.66
2023-05-13T16:36:10.976Z,97699.06
2023-05-13T16:38:41.144Z,97696.16
2023-05-13T16:41:08.749Z,97696.38
2023-05-13T16:43:36.431Z,97705.50
2023-05-13T16:46:03.947Z,97699.28
2023-05-13T16:48:31.485Z,97707.72
2023-05-13T16:50:58.981Z,97705.13
2023-05-13T16:53:27.943Z,97697.84
2023-05-13T16:55:55.468Z,97697.56
2023-05-13T16:58:22.971Z,97706.88
2023-05-13T17:00:50.488Z,97704.19
2023-05-13T17:03:18.129Z,97705.84
2023-05-13T17:05:45.990Z,97704.19
2023-05-13T17:08:13.466Z,97703.16
2023-05-13T17:10:42.354Z,97713.34
2023-05-13T17:13:09.829Z,97702.97
2023-05-13T17:15:37.322Z,97709.00
2023-05-13T17:18:05.046Z,97700.13
2023-05-13T17:20:32.593Z,97706.19
2023-05-13T17:23:00.097Z,97703.41
2023-05-13T17:25:27.640Z,97714.03
2023-05-13T17:27:56.464Z,97711.47
2023-05-13T17:30:24.200Z,97701.53
2023-05-13T17:32:51.916Z,97712.00
2023-05-13T17:35:19.481Z,97720.00
2023-05-13T17:37:46.985Z,97717.09
2023-05-13T17:40:14.630Z,97719.41
2023-05-13T17:42:42.136Z,97718.44
2023-05-13T17:45:11.635Z,97714.56
2023-05-13T17:47:39.306Z,97716.03
2023-05-13T17:50:07.781Z,97716.63
2023-05-13T17:52:35.340Z,97719.72
2023-05-13T17:55:02.845Z,97717.16
2023-05-13T17:57:31.887Z,97722.19
2023-05-13T17:59:59.386Z,97723.22
2023-05-13T18:02:28.232Z,97721.19
2023-05-13T18:04:55.857Z,97722.63
2023-05-13T18:07:23.345Z,97722.13
2023-05-13T18:09:50.886Z,97731.22
2023-05-13T18:12:18.364Z,97727.72
2023-05-13T18:14:45.882Z,97733.72
2023-05-13T18:17:13.406Z,97734.28
2023-05-13T18:19:42.240Z,97739.06
2023-05-13T18:22:09.775Z,97738.25
2023-05-13T18:24:38.415Z,97734.84
2023-05-13T18:27:06.368Z,97737.75
2023-05-13T18:29:34.195Z,97745.34
2023-05-13T18:32:01.915Z,97744.13
2023-05-13T18:34:29.696Z,97750.28
2023-05-13T18:36:58.581Z,97748.03
2023-05-13T18:39:26.388Z,97748.03
2023-05-13T18:41:53.840Z,97745.13
2023-05-13T18:44:21.373Z,97751.91
2023-05-13T18:46:48.976Z,97753.34
2023-05-13T18:49:16.467Z,97752.06
2023-05-13T18:51:45.248Z,97756.47
2023-05-13T18:54:14.184Z,97763.66
2023-05-13T18:56:42.049Z,97760.78
2023-05-13T18:59:09.545Z,97758.34
2023-05-13T19:01:37.202Z,97770.56
2023-05-13T19:04:04.812Z,97768.03
2023-05-13T19:06:33.253Z,97768.63
2023-05-13T19:09:00.751Z,97776.69
2023-05-13T19:11:29.590Z,97782.69
2023-05-13T19:13:58.255Z,97779.19
2023-05-13T19:16:26.027Z,97780.41
2023-05-13T19:18:54.293Z,97783.31
2023-05-13T19:21:23.269Z,97776.88
2023-05-13T19:23:52.076Z,97774.19
2023-05-13T19:26:21.518Z,97774.81
2023-05-13T19:28:50.903Z,97783.41
2023-05-13T19:31:18.977Z,97782.97
2023-05-13T19:33:46.619Z,97784.16
2023-05-13T19:36:14.158Z,97786.63
2023-05-13T19:38:41.723Z,97790.63
2023-05-13T19:41:09.267Z,97790.81
2023-05-13T19:43:36.801Z,97793.28
2023-05-13T19:46:05.755Z,97790.38
2023-05-13T19:48:33.343Z,97792.63
2023-05-13T19:51:00.850Z,97793.53
2023-05-13T19:53:28.351Z,97799.09
2023-05-13T19:55:56.660Z,97792.47
2023-05-13T19:58:24.242Z,97790.50
2023-05-13T20:00:51.743Z,97795.31
2023-05-13T20:03:20.819Z,97790.59
2023-05-13T20:05:49.134Z,97788.97
2023-05-13T20:08:16.660Z,97795.53
2023-05-13T20:10:44.192Z,97792.81
2023-05-13T20:13:11.836Z,97796.75
2023-05-13T20:15:39.317Z,97788.50
2023-05-13T20:18:07.266Z,97800.31
2023-05-13T20:20:36.110Z,97800.91
2023-05-13T20:23:03.634Z,97800.06
2023-05-13T20:25:31.124Z,97798.63
2023-05-13T20:27:58.650Z,97792.25
2023-05-13T20:30:26.296Z,97812.69
2023-05-13T20:32:53.925Z,97807.97
2023-05-13T20:35:21.957Z,97803.84
2023-05-13T20:37:50.777Z,97812.69
2023-05-13T20:40:18.255Z,97795.53
2023-05-13T20:42:45.787Z,97794.47
2023-05-13T20:45:13.481Z,97803.84
2023-05-13T20:47:41.445Z,97796.41
2023-05-13T20:50:09.911Z,97797.88
2023-05-13T20:52:37.404Z,97798.69
2023-05-13T20:55:07.509Z,97794.19
2023-05-13T20:57:34.977Z,97793.38
2023-05-13T21:00:02.475Z,97795.44
2023-05-13T21:02:29.958Z,97795.84
2023-05-13T21:04:57.523Z,97789.03
2023-05-13T21:07:25.023Z,97790.28
2023-05-13T21:09:52.496Z,97786.16
2023-05-13T21:12:21.306Z,97782.47
2023-05-13T21:14:51.776Z,97778.38
2023-05-13T21:17:21.388Z,97778.19
2023-05-13T21:19:49.147Z,97776.50
2023-05-13T21:22:16.942Z,97783.56
2023-05-13T21:24:44.406Z,97781.28
2023-05-13T21:27:11.876Z,97778.63
2023-05-13T21:29:40.897Z,97774.44
2023-05-13T21:32:08.385Z,97778.16
2023-05-13T21:34:36.153Z,97777.13
2023-05-13T21:37:03.629Z,97768.88
2023-05-13T21:39:31.126Z,97760.22
2023-05-13T21:42:00.065Z,97753.81
2023-05-13T21:44:28.878Z,97763.09
2023-05-13T21:46:57.790Z,97766.22
2023-05-13T21:49:25.308Z,97756.94
2023-05-13T21:51:52.792Z,97759.41
2023-05-13T21:54:20.473Z,97767.06
2023-05-13T21:56:48.031Z,97768.69
2023-05-13T21:59:15.541Z,97761.47
2023-05-13T22:01:43.134Z,97765.03
2023-05-13T22:04:11.992Z,97769.00
2023-05-13T22:06:39.509Z,97754.53
2023-05-13T22:09:07.073Z,97758.91
2023-05-13T22:11:34.614Z,97755.41
2023-05-13T22:14:02.105Z,97760.78
2023-05-13T22:16:29.707Z,97758.47
2023-05-13T22:18:59.692Z,97757.25
2023-05-13T22:21:28.648Z,97759.28
2023-05-13T22:23:56.139Z,97754.59
2023-05-13T22:26:23.677Z,97751.09
2023-05-13T22:28:51.244Z,97759.56
2023-05-13T22:31:18.841Z,97755.28
2023-05-13T22:33:46.575Z,97750.75
2023-05-13T22:36:14.538Z,97748.91
2023-05-13T22:38:43.839Z,97741.94
2023-05-13T22:41:11.979Z,97743.97
2023-05-13T22:43:39.532Z,97748.13
2023-05-13T22:46:07.058Z,97747.09
2023-05-13T22:48:34.641Z,97743.19
2023-05-13T22:51:02.182Z,97734.09
2023-05-13T22:53:29.688Z,97745.44
2023-05-13T22:55:58.515Z,97745.66
2023-05-13T22:58:25.997Z,97738.44
2023-05-13T23:00:53.652Z,97734.94
2023-05-13T23:03:21.343Z,97730.19
2023-05-13T23:05:48.969Z,97729.56
2023-05-13T23:08:16.456Z,97722.38
2023-05-13T23:10:43.936Z,97725.25
2023-05-13T23:13:12.761Z,97729.16
2023-05-13T23:15:40.401Z,97722.16
2023-05-13T23:18:08.035Z,97726.50
2023-05-13T23:20:35.556Z,97724.00
2023-05-13T23:23:03.041Z,97728.09
2023-05-13T23:25:30.544Z,97717.59
2023-05-13T23:27:58.025Z,97713.50
2023-05-13T23:30:26.856Z,97716.78
2023-05-13T23:32:54.357Z,97713.25
2023-05-13T23:35:22.040Z,97704.00
2023-05-13T23:37:50.600Z,97707.50
2023-05-13T23:40:18.308Z,97699.03
2023-05-13T23:42:45.804Z,97701.28
2023-05-13T23:45:13.436Z,97701.44
2023-05-13T23:47:42.421Z,97689.28
2023-05-13T23:50:10.667Z,97688.66
2023-05-13T23:52:38.243Z,97685.53
2023-05-13T23:55:06.644Z,97682.06
2023-05-13T23:57:34.473Z,97690.28
